Elliot Chaparral Reserve, California Weather observations

Data are for 10 minute period ending at time listed.
 Day   Time   Solar   Ave.   Ave.  Ave.  Vector  Max.   Baro.   Total    
  of    of     Rad.   Air    Rel.  Wind   Wind   Wind  Press.  Precip.   
Year   Day            Temp.  Hum.  Speed  Dir.   Gust                    
2016   (PST)  Kw/m2    F      %     mph   deg.    mph    mb.     in.     
-------------------------------------------------------------------------
 146   18:20   0.05   59.7    62   11.9   298    14.8   989.6    0.00 
 146   18:30   0.02   59.0    64   10.7   297    14.0   989.6    0.00 
 146   18:40   0.01   58.5    68   10.1   294    13.2   989.6    0.00 
 146   18:50   0.00   57.8    69    8.4   295    11.4   989.4    0.00 
 146   19:00   0.00   57.3    70    6.9   291     9.4   989.4    0.00 
 146   19:10   0.00   56.9    71    6.6   293     9.3   989.4    0.00 
 146   19:20   0.00   56.7    73    6.9   298     9.3   989.4    0.00 
 146   19:30   0.00   56.7    73    5.5   302     7.3   989.5    0.00 
 146   19:40   0.00   56.4    74    5.5   313     7.9   989.5    0.00 
 146   19:50   0.00   56.5    76    6.8   302     9.0   989.6    0.00 
 146   20:00   0.00   56.3    76    5.3   299     7.4   989.7    0.00 
 146   20:10   0.00   56.2    77    4.6   300     6.3   989.6    0.00 
 146   20:20   0.00   56.2    78    3.9   300     6.1   989.5    0.00 
 146   20:30   0.00   56.0    78    5.2   304     6.7   989.6    0.00 
 146   20:40   0.00   56.0    79    3.8   320     5.8   989.5    0.00 
 146   20:50   0.00   56.0    79    4.2   327     6.2   989.6    0.00 
 146   21:00   0.00   55.8    80    3.2   351     4.6   989.6    0.00 
 146   21:10   0.00   55.7    80    2.5   356     3.8   989.6    0.00 
 146   21:20   0.00   55.9    81    1.4   349     2.1   989.6    0.00 
 146   21:30   0.00   55.9    81    0.4   319     1.2   989.7    0.00 
 146   21:40   0.00   55.8    81    0.0   314     0.7   989.7    0.00 
 146   21:50   0.00   55.8    82    0.0   314     0.5   989.7    0.00 
 146   22:00   0.00   55.7    82    0.2   260     1.3   989.6    0.00 
 146   22:10   0.00   55.6    82    1.4   200     1.8   989.6    0.00 
 146   22:20   0.00   55.4    82    2.0   194     2.4   989.6    0.00 
 146   22:30   0.00   55.3    82    2.2   188     3.1   989.5    0.00 
 146   22:40   0.00   55.1    82    2.6   174     3.3   989.5    0.00 
 146   22:50   0.00   55.0    83    1.6   158     3.0   989.6    0.00 
 146   23:00   0.00   55.0    83    1.4   150     3.1   989.5    0.00 
 146   23:10   0.00   54.8    83    3.3   157     4.9   989.5    0.00 
 146   23:20   0.00   54.6    83    3.5   157     4.7   989.4    0.00 
 146   23:30   0.00   54.3    84    3.1   130     4.6   989.3    0.00 
 146   23:40   0.00   54.3    84    3.8   122     5.9   989.3    0.00 
 146   23:50   0.00   54.1    84    4.8   109     6.4   989.2    0.00 
 147    0:00   0.00   53.6    85    5.2   113     6.6   989.0    0.00 
 147    0:10   0.00   53.5    85    4.8   116     6.4   989.0    0.00 
 147    0:20   0.00   53.7    85    4.6   117     5.5   988.9    0.00 
 147    0:30   0.00   53.6    85    5.2   113     6.7   988.9    0.00 
 147    0:40   0.00   53.2    85    7.1   111     8.8   988.8    0.00 
 147    0:50   0.00   53.4    85    7.3   113     9.7   988.7    0.00 
 147    1:00   0.00   53.4    84    7.8   113    10.2   988.6    0.00 
 147    1:10   0.00   53.7    82    8.4   120    10.0   988.6    0.00 
 147    1:20   0.00   53.4    82    8.6   124    11.1   988.5    0.00 
 147    1:30   0.00   53.0    84    7.6   119    10.1   988.4    0.00 
 147    1:40   0.00   52.8    84    7.1   120     9.8   988.3    0.00 
 147    1:50   0.00   53.2    83    9.3   126    11.6   988.3    0.00 
 147    2:00   0.00   53.2    82    8.7   130    11.6   988.3    0.00 
 147    2:10   0.00   53.0    84    8.1   122    10.0   988.3    0.00 
 147    2:20   0.00   52.8    86    7.7   114     9.6   988.3    0.00 
 147    2:30   0.00   52.9    85    8.1   112    10.7   988.2    0.00 
 147    2:40   0.00   52.9    86    7.7   114    10.2   988.2    0.00 
 147    2:50   0.00   52.6    87    8.3   115    10.3   988.2    0.00 
 147    3:00   0.00   52.1    89    8.5   108    11.4   988.2    0.00 
 147    3:10   0.00   52.0    90   10.4   108    13.4   988.1    0.00 
 147    3:20   0.00   51.8    91   10.9   106    13.7   988.1    0.00 
 147    3:30   0.00   51.8    91   11.1   102    13.8   988.0    0.00 
 147    3:40   0.00   51.9    91   11.0   105    13.9   987.9    0.00 
 147    3:50   0.00   51.9    91   11.4   106    14.6   987.9    0.00 
 147    4:00   0.00   52.0    90   11.0   107    13.6   987.9    0.00 
 147    4:10   0.00   52.1    90   11.1   105    14.2   987.9    0.00 
 147    4:20   0.00   52.1    89   10.1   107    12.9   988.0    0.00 
 147    4:30   0.00   52.2    88   10.3   108    12.5   988.0    0.00 
 147    4:40   0.00   52.3    88   10.6   103    14.7   987.9    0.00 
 147    4:50   0.00   52.4    87   10.9   109    13.0   988.1    0.00 
 147    5:00   0.00   52.5    86   10.0   110    13.4   988.2    0.00 
 147    5:10   0.01   52.6    85   10.4   110    12.3   988.2    0.00 
 147    5:20   0.02   52.9    84    9.3   105    12.2   988.3    0.00 
 147    5:30   0.03   53.2    83    7.4   108     9.9   988.4    0.00 
 147    5:40   0.03   53.3    82    8.9   109    12.0   988.6    0.00 
 147    5:50   0.05   53.6    80    9.2   110    11.3   988.6    0.00 
 147    6:00   0.07   53.9    79    9.2   105    11.6   988.6    0.00 
 147    6:10   0.09   54.3    78    8.3   101    10.8   988.7    0.00 
 147    6:20   0.12   55.0    77    8.5   103    10.9   988.7    0.00 
 147    6:30   0.12   55.6    76    7.1   110     9.0   988.8    0.00 
 147    6:40   0.15   56.0    75    7.3   116     8.6   988.9    0.00 
 147    6:50   0.18   56.6    75    6.7   120     8.1   988.9    0.00 
 147    7:00   0.17   57.2    74    6.1   119     7.5   989.0    0.00 
 147    7:10   0.21   57.3    74    6.3   117     8.0   989.0    0.00 
 147    7:20   0.23   58.1    72    4.6   115     7.0   989.2    0.00 
 147    7:30   0.26   59.3    71    4.3   145     7.5   989.2    0.00 
 147    7:40   0.34   59.6    70    4.3   135     8.3   989.2    0.00 
 147    7:50   0.30   60.3    68    3.1   186     7.1   989.3    0.00 
 147    8:00   0.29   60.9    68    3.6   202     7.8   989.3    0.00 
 147    8:10   0.32   61.7    66    3.4   202     7.0   989.3    0.00 
 147    8:20   0.36   62.4    64    3.7   207     7.5   989.2    0.00 
 147    8:30   0.36   62.3    64    3.4   173     8.5   989.2    0.00 
 147    8:40   0.41   63.7    61    4.2   199     6.9   989.2    0.00 
 147    8:50   0.41   63.2    60    2.8   256     7.2   989.2    0.00 
 147    9:00   0.34   62.6    63    6.9   250    11.8   989.2    0.00 
 147    9:10   0.37   62.1    64    6.3   253    12.3   989.2    0.00 
 147    9:20   0.58   63.9    62    8.8   235    11.6   989.1    0.00 
 147    9:30   0.48   63.8    62    7.8   220    12.9   989.2    0.00 
 147    9:40   0.41   63.6    62    7.5   229    11.5   989.1    0.00 
 147    9:50   0.34   63.3    62    6.4   213    10.2   989.1    0.00 
 147   10:00   0.32   64.1    60    5.6   221     9.6   989.1    0.00 
 147   10:10   0.30   63.7    62    6.4   242    11.0   989.2    0.00 
 147   10:20   0.32   63.4    62    6.1   268    11.8   989.1    0.00 
 147   10:30   0.29   64.1    61    7.9   262    12.9   989.1    0.00 
 147   10:40   0.31   63.1    63    8.9   264    13.2   989.1    0.00 
 147   10:50   0.36   63.5    63    8.6   258    13.6   989.0    0.00 
 147   11:00   0.45   64.0    62    8.0   272    11.2   988.9    0.00 
 147   11:10   0.52   65.1    60   10.2   244    16.0   988.9    0.00 
 147   11:20   0.55   65.3    60    9.5   234    13.8   989.0    0.00 
 147   11:30   0.83   65.8    59    9.5   257    13.2   989.0    0.00 
 147   11:40   0.63   65.7    59    8.8   252    12.1   988.9    0.00 
 147   11:50   0.62   66.3    58    7.7   266    13.2   988.7    0.00 
 147   12:00   0.64   66.3    58    8.0   249    12.9   988.7    0.00 
 147   12:10   0.76   67.0    58    7.1   256    14.1   988.6    0.00 
 147   12:20   0.64   66.9    58    7.7   264    11.9   988.5    0.00 
 147   12:30   0.85   67.7    56    8.2   267    16.1   988.3    0.00 
 147   12:40   0.99   69.0    54   10.2   286    15.1   988.3    0.00 
 147   12:50   1.11   68.8    54    7.9   292    14.5   988.2    0.00 
 147   13:00   0.97   69.4    53    6.5   291    13.7   988.1    0.00 
 147   13:10   0.99   69.3    54   11.3   259    17.5   987.9    0.00 
 147   13:20   0.95   68.8    55   11.2   261    16.3   987.8    0.00 
 147   13:30   0.95   68.3    56   12.8   277    20.1   987.7    0.00 
 147   13:40   0.89   68.5    56    9.8   273    14.7   987.7    0.00 
 147   13:50   0.84   68.8    55    9.3   253    14.6   987.5    0.00 
 147   14:00   0.79   68.8    55    8.3   258    13.5   987.4    0.00 
 147   14:10   0.87   70.2    53    9.7   277    18.6   987.4    0.00 
 147   14:20   0.80   68.8    55    7.7   260    14.2   987.3    0.00 
 147   14:30   0.79   69.4    54    9.3   262    15.3   987.2    0.00 
 147   14:40   0.73   69.1    54    9.2   268    15.4   987.1    0.00 
 147   14:50   0.68   68.9    55   11.3   275    15.8   987.0    0.00 
 147   15:00   0.67   68.7    55   11.0   278    16.6   986.9    0.00 
 147   15:10   0.64   68.3    56   10.3   283    17.0   986.9    0.00 
 147   15:20   0.51   68.1    56   11.2   273    15.9   986.8    0.00 
 147   15:30   0.60   67.9    57    9.7   280    16.2   986.8    0.00 
 147   15:40   0.49   67.3    59   11.2   272    15.1   986.6    0.00 
 147   15:50   0.54   67.2    59   10.5   264    14.8   986.6    0.00 
 147   16:00   0.50   67.2    59    9.1   278    14.1   986.5    0.00 
 147   16:10   0.47   67.1    59   10.4   273    15.9   986.4    0.00 
 147   16:20   0.36   66.1    61   10.4   276    14.0   986.4    0.00 
 147   16:30   0.35   65.9    61   11.9   269    18.6   986.3    0.00 
 147   16:40   0.20   64.6    64   11.8   271    16.1   986.4    0.00 
 147   16:50   0.23   64.3    64   10.6   273    16.1   986.4    0.00 
 147   17:00   0.17   63.6    66   10.6   276    14.8   986.4    0.00 
 147   17:10   0.13   62.8    67   10.7   291    14.5   986.4    0.00 
 147   17:20   0.11   62.4    68   10.0   281    13.2   986.4    0.00 
 147   17:30   0.12   61.8    69    9.6   293    14.5   986.4    0.00 
 147   17:40   0.15   62.5    68    9.1   285    12.9   986.4    0.00 
 147   17:50   0.12   62.6    68    8.1   288    11.7   986.3    0.00 
 147   18:00   0.10   62.5    69    8.7   285    11.4   986.4    0.00 
 147   18:10   0.07   62.0    69    8.0   291    11.2   986.5    0.00 

Return to Elliot Chaparral Reserve graphs page.


Western Regional Climate Center,wrcc@dri.edu